Time;durP1;ratioP1;P1;durP2;ratioP2;P2;SDS_P1;SDS_P2;PMS_P1;PMS_P2;Temp;Humidity;BMP_temperature;BMP_pressure;BME280_temperature;BME280_humidity;BME280_pressure;Samples;Min_cycle;Max_cycle;Signal;HPM_P1;HPM_P2
2022/10/26 00:01:09;;;;;;;26.17;1.95;;;;;;;15.93;63.81;98532.72;5280532;27;20492;-85
2022/10/26 00:03:36;;;;;;;14.68;1.70;;;;;;;16.30;62.67;98526.25;5300025;27;20065;-85
2022/10/26 00:06:08;;;;;;;19.37;1.80;;;;;;;16.44;62.05;98524.50;5280700;27;20068;-85
2022/10/26 00:08:35;;;;;;;18.65;1.87;;;;;;;15.87;64.27;98524.38;5300817;27;20061;-85
2022/10/26 00:11:03;;;;;;;18.73;2.10;;;;;;;15.49;65.67;98523.84;5301313;27;20045;-85
2022/10/26 00:13:30;;;;;;;33.80;2.12;;;;;;;16.20;63.41;98528.56;5301056;27;20407;-85
2022/10/26 00:15:57;;;;;;;31.15;2.40;;;;;;;15.59;65.59;98526.78;5300805;27;20049;-85
2022/10/26 00:18:29;;;;;;;38.88;2.65;;;;;;;15.27;66.91;98532.00;5301155;27;20092;-84
2022/10/26 00:21:02;;;;;;;11.70;2.03;;;;;;;14.93;67.69;98529.53;5300693;27;20101;-85
2022/10/26 00:23:29;;;;;;;41.80;2.70;;;;;;;14.87;67.16;98533.25;5300506;27;20061;-85
2022/10/26 00:25:56;;;;;;;52.70;3.35;;;;;;;14.86;69.25;98535.94;5300580;27;20075;-85
2022/10/26 00:28:23;;;;;;;25.37;2.78;;;;;;;14.85;71.51;98532.50;5301258;27;20056;-84
2022/10/26 00:30:50;;;;;;;23.00;2.40;;;;;;;15.47;70.83;98532.66;5300609;27;20053;-84
2022/10/26 00:33:17;;;;;;;22.17;2.47;;;;;;;15.32;73.74;98540.41;5300325;27;20057;-85
2022/10/26 00:35:52;;;;;;;34.83;2.85;;;;;;;15.61;73.17;98536.22;5300221;27;20057;-85
2022/10/26 00:38:19;;;;;;;14.65;2.10;;;;;;;15.55;74.83;98527.91;5300187;27;20105;-85
2022/10/26 00:40:46;;;;;;;19.52;2.53;;;;;;;14.91;78.48;98528.75;5300369;27;20056;-84
2022/10/26 00:43:16;;;;;;;20.83;2.17;;;;;;;14.87;78.02;98527.22;5300182;27;20061;-84
2022/10/26 00:45:44;;;;;;;21.12;2.03;;;;;;;15.50;76.33;98524.69;5299420;27;20387;-84
2022/10/26 00:48:21;;;;;;;19.15;2.10;;;;;;;15.85;75.31;98531.41;5300443;27;20080;-85
2022/10/26 00:50:48;;;;;;;11.05;1.67;;;;;;;15.39;77.98;98533.06;5280401;27;20045;-85
2022/10/26 00:53:15;;;;;;;15.40;1.95;;;;;;;15.66;76.85;98527.34;5299917;27;20062;-84
2022/10/26 00:55:45;;;;;;;7.00;2.10;;;;;;;15.62;76.29;98522.28;5299771;27;20064;-84
2022/10/26 00:58:12;;;;;;;5.75;1.90;;;;;;;16.06;73.94;98520.72;5299480;27;20067;-85
2022/10/26 01:00:40;;;;;;;5.45;1.70;;;;;;;16.22;73.13;98524.09;5280555;27;20057;-84
2022/10/26 01:03:09;;;;;;;10.90;2.50;;;;;;;16.30;73.49;98531.47;5280578;27;20061;-85
2022/10/26 01:05:39;;;;;;;21.48;3.37;;;;;;;16.60;73.29;98532.28;5299234;27;20057;-85
2022/10/26 01:08:07;;;;;;;28.55;3.55;;;;;;;16.77;74.68;98531.28;5280035;27;20049;-84
2022/10/26 01:10:37;;;;;;;28.60;3.60;;;;;;;17.02;74.91;98536.69;5299929;27;20049;-84
2022/10/26 01:13:04;;;;;;;32.42;3.97;;;;;;;16.25;78.82;98530.87;5280037;27;20439;-85
2022/10/26 01:15:39;;;;;;;34.75;4.93;;;;;;;16.47;78.17;98533.91;5280219;27;20057;-84
2022/10/26 01:18:14;;;;;;;43.60;4.70;;;;;;;17.02;75.93;98541.09;5299558;27;20066;-84
2022/10/26 01:21:13;;;;;;;93.43;6.40;;;;;;;17.00;76.38;98537.72;5280017;27;20414;-84
2022/10/26 01:23:59;;;;;;;94.45;6.57;;;;;;;17.00;77.39;98535.94;5299275;27;20727;-84
2022/10/26 01:26:48;;;;;;;81.45;6.12;;;;;;;17.25;77.26;98534.44;5299306;27;20057;-85
2022/10/26 01:29:37;;;;;;;73.72;6.05;;;;;;;17.71;75.99;98535.00;5299906;27;20053;-84
2022/10/26 01:32:09;;;;;;;96.75;6.40;;;;;;;18.11;73.98;98522.84;5299985;27;20512;-84
2022/10/26 01:35:09;;;;;;;88.25;6.10;;;;;;;17.94;74.67;98523.09;5279993;27;20062;-84
2022/10/26 01:37:42;;;;;;;92.32;6.85;;;;;;;19.07;69.54;98525.94;5295504;27;20049;-84
2022/10/26 01:40:22;;;;;;;90.12;5.78;;;;;;;19.50;67.02;98534.22;5280121;27;20064;-85
2022/10/26 01:42:52;;;;;;;82.70;5.47;;;;;;;19.21;67.50;98533.66;5280467;27;20060;-84
2022/10/26 01:45:19;;;;;;;80.72;5.30;;;;;;;19.08;68.30;98531.06;5280198;27;20065;-84
2022/10/26 01:47:47;;;;;;;65.82;5.25;;;;;;;19.32;67.50;98525.88;5279959;27;20071;-85
2022/10/26 01:50:14;;;;;;;77.87;5.53;;;;;;;19.10;69.21;98524.88;5299828;27;20057;-84
2022/10/26 01:52:41;;;;;;;78.18;5.50;;;;;;;19.02;69.81;98521.00;5299751;27;20058;-84
2022/10/26 01:55:39;;;;;;;77.80;5.53;;;;;;;19.08;69.64;98519.75;5299168;27;20332;-84
2022/10/26 01:58:24;;;;;;;;;;;;;;;19.47;67.45;98517.91;5300194;27;20056;-84
2022/10/26 02:01:05;;;;;;;73.57;5.15;;;;;;;19.89;65.36;98519.22;5299759;27;20015;-84
2022/10/26 02:03:58;;;;;;;58.35;4.55;;;;;;;19.41;67.07;98518.31;5299756;27;20044;-84
2022/10/26 02:06:38;;;;;;;49.63;3.90;;;;;;;19.80;64.57;98510.25;5299526;27;20077;-84
2022/10/26 02:09:28;;;;;;;54.20;4.20;;;;;;;20.01;62.17;98510.47;5299061;27;20336;-85
2022/10/26 02:11:56;;;;;;;56.75;4.50;;;;;;;19.47;64.33;98507.44;5299752;27;20324;-84
2022/10/26 02:14:49;;;;;;;78.07;5.37;;;;;;;19.33;63.77;98506.59;5280091;27;20101;-84
2022/10/26 02:17:27;;;;;;;63.97;4.25;;;;;;;18.57;66.16;98505.84;5298995;27;20098;-85
2022/10/26 02:20:05;;;;;;;51.08;3.30;;;;;;;18.56;65.88;98505.00;5299661;27;20062;-85
2022/10/26 02:22:39;;;;;;;34.33;3.00;;;;;;;18.33;65.61;98500.50;5299297;27;20052;-85
2022/10/26 02:25:17;;;;;;;31.20;2.80;;;;;;;17.67;66.11;98499.59;5280074;27;20049;-84
2022/10/26 02:27:46;;;;;;;33.60;2.75;;;;;;;16.02;72.79;98490.56;5280331;26;20072;-85
2022/10/26 02:30:14;;;;;;;115.95;6.00;;;;;;;17.41;67.52;98503.84;5279981;27;20068;-85
2022/10/26 02:32:45;;;;;;;31.00;2.53;;;;;;;17.74;66.15;98497.44;5280170;27;20056;-85
2022/10/26 02:35:13;;;;;;;15.18;2.03;;;;;;;18.10;64.64;98495.03;5280032;27;20061;-85
2022/10/26 02:37:41;;;;;;;20.30;2.40;;;;;;;18.64;62.17;98501.88;5279786;27;20414;-85
2022/10/26 02:40:12;;;;;;;43.35;2.97;;;;;;;18.50;62.12;98495.84;5280340;27;20061;-85
2022/10/26 02:42:41;;;;;;;34.70;2.17;;;;;;;18.97;59.17;98506.59;5299821;27;20048;-84
2022/10/26 02:45:11;;;;;;;73.12;3.70;;;;;;;18.50;60.54;98513.25;5279483;27;20045;-84
2022/10/26 02:47:38;;;;;;;75.40;3.92;;;;;;;17.99;62.66;98502.75;5279973;27;20122;-84
2022/10/26 02:50:05;;;;;;;31.52;2.45;;;;;;;18.00;62.98;98504.44;5279799;27;20387;-85
2022/10/26 02:52:48;;;;;;;68.25;3.40;;;;;;;18.25;62.50;98500.19;5299597;27;20049;-85
2022/10/26 02:55:18;;;;;;;75.87;3.87;;;;;;;18.44;62.15;98503.22;5280109;27;20067;-84
2022/10/26 02:57:50;;;;;;;72.12;3.40;;;;;;;18.25;62.83;98494.97;5299023;27;20057;-85
2022/10/26 03:00:17;;;;;;;63.38;3.17;;;;;;;18.48;62.77;98500.31;5280500;27;20419;-84
2022/10/26 03:02:50;;;;;;;52.97;3.22;;;;;;;18.71;61.97;98492.69;5299593;27;20049;-84
2022/10/26 03:05:31;;;;;;;45.60;2.25;;;;;;;18.58;62.44;98492.66;5279633;27;20127;-85
2022/10/26 03:07:59;;;;;;;30.88;2.00;;;;;;;18.64;62.40;98500.13;5280041;27;20061;-84
2022/10/26 03:10:26;;;;;;;89.40;3.78;;;;;;;18.25;63.39;98495.78;5280149;27;20061;-84
2022/10/26 03:12:53;;;;;;;113.62;4.20;;;;;;;18.70;61.53;98504.09;5279680;27;20053;-85
2022/10/26 03:15:20;;;;;;;104.87;4.75;;;;;;;18.64;61.89;98497.53;5299201;27;20045;-84
2022/10/26 03:17:47;;;;;;;178.05;7.12;;;;;;;18.49;62.96;98501.13;5299386;27;20065;-84
2022/10/26 03:20:14;;;;;;;305.77;12.68;;;;;;;18.50;62.65;98492.34;5279807;27;20061;-85
2022/10/26 03:22:41;;;;;;;370.85;13.48;;;;;;;18.56;62.72;98499.78;5299397;27;20391;-84
2022/10/26 03:25:08;;;;;;;215.55;8.38;;;;;;;18.27;63.36;98499.13;5298750;27;20491;-85
2022/10/26 03:27:36;;;;;;;190.52;6.68;;;;;;;17.92;64.32;98498.87;5299380;27;20061;-84
2022/10/26 03:30:04;;;;;;;115.03;4.78;;;;;;;17.53;65.04;98497.00;5299302;27;20054;-84
2022/10/26 03:32:31;;;;;;;203.10;7.32;;;;;;;17.35;65.34;98497.25;5298904;27;20175;-85
2022/10/26 03:34:58;;;;;;;93.97;4.25;;;;;;;17.39;64.99;98510.09;5299086;27;20068;-84
2022/10/26 03:37:25;;;;;;;135.88;5.53;;;;;;;17.36;64.44;98508.53;5299253;27;20061;-85
2022/10/26 03:39:52;;;;;;;59.17;2.70;;;;;;;17.60;63.81;98508.75;5298858;27;20061;-85
2022/10/26 03:42:18;;;;;;;70.18;3.58;;;;;;;17.54;63.33;98501.28;5281479;27;20063;-85
2022/10/26 03:44:47;;;;;;;71.28;4.40;;;;;;;17.35;63.26;98505.09;5301628;27;20045;-84
2022/10/26 03:47:14;;;;;;;6.03;1.60;;;;;;;17.44;63.01;98501.06;5301131;27;20065;-85
2022/10/26 03:49:40;;;;;;;43.03;2.83;;;;;;;17.49;62.59;98504.22;5301661;27;20061;-84
2022/10/26 03:52:07;;;;;;;55.75;3.35;;;;;;;17.57;62.61;98507.16;5301681;27;20061;-84
2022/10/26 03:54:34;;;;;;;165.55;7.30;;;;;;;17.85;62.52;98508.84;5301041;27;20075;-84
2022/10/26 03:57:01;;;;;;;102.90;5.65;;;;;;;18.15;62.33;98497.34;5301522;27;20056;-84
2022/10/26 03:59:28;;;;;;;82.57;4.20;;;;;;;18.53;62.59;98500.00;5301588;27;20068;-84
2022/10/26 04:01:55;;;;;;;60.53;3.50;;;;;;;18.03;63.83;98500.78;5281708;27;20057;-85
2022/10/26 04:04:23;;;;;;;43.22;3.40;;;;;;;17.92;64.00;98491.03;5301483;27;20093;-84
2022/10/26 04:06:50;;;;;;;38.90;4.53;;;;;;;17.98;62.95;98498.47;5301366;27;20071;-84
2022/10/26 04:09:17;;;;;;;60.38;5.37;;;;;;;17.91;61.63;98491.97;5301189;27;20371;-85
2022/10/26 04:11:44;;;;;;;19.40;3.53;;;;;;;17.74;62.11;98494.81;5282024;27;20053;-84
2022/10/26 04:14:11;;;;;;;18.75;4.15;;;;;;;18.33;59.72;98497.91;5301408;27;20059;-84
2022/10/26 04:16:38;;;;;;;53.05;5.65;;;;;;;18.16;59.78;98494.63;5281679;27;20536;-85
2022/10/26 04:19:05;;;;;;;14.52;4.70;;;;;;;18.47;57.75;98495.19;5301332;27;20091;-84
2022/10/26 04:21:32;;;;;;;34.38;5.47;;;;;;;17.49;60.90;98503.38;5301093;27;20053;-85
2022/10/26 04:23:59;;;;;;;76.18;6.72;;;;;;;17.15;61.71;98513.31;5301418;27;20055;-84
2022/10/26 04:26:26;;;;;;;130.90;7.15;;;;;;;16.66;63.13;98502.41;5301183;27;20061;-84
2022/10/26 04:28:53;;;;;;;126.45;6.90;;;;;;;17.12;62.25;98512.66;5281481;27;20061;-85
2022/10/26 04:31:20;;;;;;;56.90;4.47;;;;;;;16.81;62.95;98504.12;5281973;27;20068;-84
2022/10/26 04:33:47;;;;;;;52.67;4.37;;;;;;;17.13;62.51;98499.53;5301384;27;20097;-84
2022/10/26 04:36:14;;;;;;;55.90;4.72;;;;;;;17.29;62.21;98509.84;5300759;27;20423;-85
2022/10/26 04:38:40;;;;;;;108.82;5.50;;;;;;;17.32;62.42;98510.47;5301396;27;20072;-84
2022/10/26 04:41:07;;;;;;;87.35;5.60;;;;;;;17.28;63.13;98506.41;5301253;27;20498;-84
2022/10/26 04:43:34;;;;;;;55.85;5.28;;;;;;;18.07;61.01;98504.84;5300917;27;20312;-85
2022/10/26 04:46:01;;;;;;;123.25;8.07;;;;;;;17.64;62.01;98499.78;5301052;27;20060;-84
2022/10/26 04:48:28;;;;;;;96.93;6.07;;;;;;;17.43;62.87;98501.97;5301099;27;20066;-84
2022/10/26 04:50:58;;;;;;;153.40;8.43;;;;;;;17.59;62.65;98504.47;5300899;27;20064;-85
2022/10/26 04:53:26;;;;;;;96.25;7.20;;;;;;;18.73;58.50;98507.34;5300152;27;20437;-84
2022/10/26 04:55:57;;;;;;;173.48;9.38;;;;;;;18.30;59.29;98498.13;5299755;27;20080;-84
2022/10/26 04:58:24;;;;;;;157.23;9.30;;;;;;;18.30;59.30;98503.34;5299511;27;20071;-84
2022/10/26 05:00:51;;;;;;;163.23;8.80;;;;;;;18.27;60.05;98496.53;5299836;27;20057;-84
2022/10/26 05:03:18;;;;;;;136.37;7.55;;;;;;;18.18;61.53;98499.75;5299938;27;20396;-84
2022/10/26 05:05:46;;;;;;;154.18;7.37;;;;;;;17.93;62.82;98496.16;5299507;27;20065;-84
2022/10/26 05:08:14;;;;;;;186.50;8.38;;;;;;;17.63;64.09;98493.72;5280140;27;20333;-84
2022/10/26 05:10:41;;;;;;;134.87;7.15;;;;;;;16.54;68.65;98493.56;5299434;27;20529;-85
2022/10/26 05:13:09;;;;;;;81.95;6.20;;;;;;;16.70;68.13;98491.75;5299862;27;20049;-84
2022/10/26 05:15:36;;;;;;;90.28;5.80;;;;;;;17.01;68.03;98485.50;5299610;27;20060;-84
2022/10/26 05:18:04;;;;;;;65.90;4.53;;;;;;;17.20;68.09;98493.00;5299425;27;20057;-84
2022/10/26 05:20:33;;;;;;;53.38;5.07;;;;;;;18.02;65.46;98493.88;5299834;27;20098;-84
2022/10/26 05:23:02;;;;;;;61.05;4.93;;;;;;;17.40;68.07;98496.12;5299835;27;20041;-84
2022/10/26 05:25:31;;;;;;;60.33;4.45;;;;;;;17.32;68.71;98499.19;5279906;27;20125;-84
2022/10/26 05:27:59;;;;;;;87.05;5.65;;;;;;;17.32;68.99;98500.03;5280252;27;20113;-84
2022/10/26 05:30:26;;;;;;;81.90;5.80;;;;;;;17.55;68.46;98503.00;5280332;27;20064;-84
2022/10/26 05:32:57;;;;;;;48.87;4.18;;;;;;;17.60;68.55;98513.97;5299369;27;20044;-84
2022/10/26 05:35:25;;;;;;;59.25;4.95;;;;;;;18.27;66.33;98513.97;5299656;27;20065;-84
2022/10/26 05:37:52;;;;;;;69.00;5.40;;;;;;;18.20;66.48;98503.94;5280364;27;20065;-84
2022/10/26 05:40:19;;;;;;;38.95;4.28;;;;;;;18.18;66.42;98513.66;5299403;27;20057;-84
2022/10/26 05:42:46;;;;;;;59.15;5.10;;;;;;;18.14;67.02;98517.41;5299764;27;20048;-84
2022/10/26 05:45:14;;;;;;;81.37;5.35;;;;;;;18.01;67.22;98505.25;5280173;27;20079;-84
2022/10/26 05:47:43;;;;;;;45.95;4.50;;;;;;;18.13;67.09;98510.50;5299214;27;20099;-85
2022/10/26 05:50:11;;;;;;;16.08;3.15;;;;;;;18.35;66.58;98515.13;5299722;27;20045;-85
2022/10/26 05:52:41;;;;;;;38.72;5.07;;;;;;;18.64;65.71;98518.44;5299535;27;20101;-86
2022/10/26 05:55:09;;;;;;;38.63;4.55;;;;;;;18.38;66.51;98519.31;5299532;27;20360;-85
2022/10/26 05:57:37;;;;;;;18.02;3.78;;;;;;;18.70;65.82;98523.22;5280287;27;20364;-84
2022/10/26 06:00:09;;;;;;;20.10;3.87;;;;;;;19.33;63.21;98521.47;5299303;27;20049;-85
2022/10/26 06:02:59;;;;;;;53.72;4.80;;;;;;;19.46;62.57;98526.66;5299785;27;20367;-84
2022/10/26 06:05:27;;;;;;;54.42;4.60;;;;;;;20.10;59.43;98530.75;5298802;27;20106;-85
2022/10/26 06:07:55;;;;;;;95.15;8.80;;;;;;;19.93;59.91;98531.97;5261617;27;20114;-84
2022/10/26 06:10:22;;;;;;;67.82;11.20;;;;;;;19.40;62.43;98542.81;5299767;27;20064;-85
2022/10/26 06:12:49;;;;;;;110.55;9.32;;;;;;;19.15;63.52;98541.94;5299603;27;20049;-84
2022/10/26 06:15:20;;;;;;;54.33;6.50;;;;;;;19.39;63.06;98546.38;5299431;27;20399;-84
2022/10/26 06:18:04;;;;;;;132.37;8.52;;;;;;;19.27;64.24;98548.09;5299599;27;20079;-85
2022/10/26 06:20:54;;;;;;;60.17;5.70;;;;;;;19.13;64.97;98549.03;5299677;27;20100;-85
2022/10/26 06:23:40;;;;;;;93.57;6.43;;;;;;;19.30;65.01;98545.25;5305748;27;20041;-83
2022/10/26 06:26:31;;;;;;;70.97;5.57;;;;;;;19.07;66.13;98552.94;5287869;27;20430;-85
2022/10/26 06:29:11;;;;;;;21.52;3.50;;;;;;;18.76;66.57;98546.34;5284562;27;20064;-86
2022/10/26 06:31:38;;;;;;;64.03;5.05;;;;;;;19.43;65.36;98548.66;5283064;27;20063;-85
2022/10/26 06:34:05;;;;;;;48.72;4.37;;;;;;;19.28;65.49;98550.59;5302143;27;20093;-85
2022/10/26 06:36:32;;;;;;;53.65;4.95;;;;;;;18.20;68.86;98544.91;5300623;27;20057;-86
2022/10/26 06:39:02;;;;;;;55.90;5.35;;;;;;;19.45;66.52;98551.16;5305924;27;20074;-85
2022/10/26 06:41:31;;;;;;;69.00;5.60;;;;;;;19.83;66.63;98554.53;5302012;27;20049;-84
2022/10/26 06:43:58;;;;;;;38.67;4.82;;;;;;;20.74;61.48;98559.19;5280799;27;20045;-86
2022/10/26 06:46:36;;;;;;;32.95;4.00;;;;;;;21.37;60.06;98566.53;5300394;27;20388;-84
2022/10/26 06:49:28;;;;;;;12.77;3.80;;;;;;;21.72;59.79;98552.37;5280135;27;20062;-85
2022/10/26 06:52:02;;;;;;;8.45;2.92;;;;;;;21.94;59.39;98562.81;5282155;27;20086;-85
2022/10/26 06:54:44;;;;;;;15.13;2.83;;;;;;;21.68;60.91;98571.94;5299545;27;20413;-85
2022/10/26 06:57:12;;;;;;;12.25;3.12;;;;;;;20.78;62.91;98574.56;5299144;27;20061;-85
2022/10/26 06:59:44;;;;;;;12.82;2.97;;;;;;;20.80;62.47;98579.69;5280232;27;20061;-85
2022/10/26 07:02:11;;;;;;;14.98;3.05;;;;;;;20.66;63.40;98577.28;5299600;27;20530;-86
2022/10/26 07:04:38;;;;;;;15.73;3.22;;;;;;;20.54;64.68;98581.66;5298954;27;20049;-85
2022/10/26 07:07:04;;;;;;;13.95;3.37;;;;;;;20.69;64.44;98577.88;5299357;27;20068;-85
2022/10/26 07:09:31;;;;;;;10.30;3.40;;;;;;;20.55;66.23;98579.88;5299335;27;20061;-86
2022/10/26 07:11:58;;;;;;;13.65;3.65;;;;;;;20.72;65.99;98582.87;5299136;27;20049;-86
2022/10/26 07:14:25;;;;;;;8.95;3.15;;;;;;;20.88;66.05;98586.97;5299403;27;20100;-86
2022/10/26 07:16:53;;;;;;;10.95;3.30;;;;;;;20.66;66.11;98578.09;5298508;27;20068;-85
2022/10/26 07:19:20;;;;;;;14.68;3.35;;;;;;;20.60;66.23;98591.66;5299518;27;20058;-86
2022/10/26 07:21:47;;;;;;;24.08;4.35;;;;;;;20.53;66.79;98582.63;5299441;27;20316;-85
2022/10/26 07:24:14;;;;;;;11.85;3.55;;;;;;;20.53;66.38;98585.22;5298997;27;20395;-84
2022/10/26 07:26:40;;;;;;;23.17;3.62;;;;;;;20.41;67.22;98579.06;5299621;27;20064;-85
2022/10/26 07:29:07;;;;;;;20.90;3.28;;;;;;;20.47;66.48;98593.53;5300086;27;20071;-86
2022/10/26 07:31:34;;;;;;;16.75;3.37;;;;;;;20.27;67.83;98594.97;5279674;27;20348;-86
2022/10/26 07:34:01;;;;;;;21.77;4.15;;;;;;;19.87;69.80;98597.03;5280199;27;20041;-86
2022/10/26 07:36:28;;;;;;;13.07;3.33;;;;;;;19.70;71.12;98592.19;5299268;27;20057;-86
2022/10/26 07:38:55;;;;;;;25.88;3.72;;;;;;;20.06;70.17;98599.16;5279374;27;20305;-86
2022/10/26 07:41:22;;;;;;;14.87;3.58;;;;;;;20.06;70.66;98594.75;5280673;27;20059;-87
2022/10/26 07:43:49;;;;;;;19.27;3.60;;;;;;;19.86;71.71;98601.44;5301354;27;20045;-86
2022/10/26 07:46:17;;;;;;;9.80;3.53;;;;;;;19.69;72.88;98601.81;5301001;27;20052;-86
2022/10/26 07:48:44;;;;;;;18.62;3.97;;;;;;;19.56;72.96;98593.16;5309416;27;20084;-85
2022/10/26 07:51:11;;;;;;;14.55;3.50;;;;;;;18.88;76.51;98591.72;5291787;27;20106;-86
2022/10/26 07:53:38;;;;;;;16.33;3.70;;;;;;;19.01;76.22;98597.78;5310316;27;20091;-86
2022/10/26 07:56:05;;;;;;;13.00;3.85;;;;;;;19.51;75.25;98609.16;5304690;27;20061;-86
2022/10/26 07:58:33;;;;;;;10.90;3.70;;;;;;;19.15;76.85;98612.56;5302519;27;20061;-86
2022/10/26 08:01:10;;;;;;;11.02;4.05;;;;;;;19.92;73.80;98608.03;5302604;27;20064;-86
2022/10/26 08:03:37;;;;;;;11.25;3.92;;;;;;;19.90;73.60;98613.37;5281849;27;20048;-86
2022/10/26 08:06:05;;;;;;;9.68;3.40;;;;;;;20.00;73.61;98604.88;5300931;27;20109;-87
2022/10/26 08:08:32;;;;;;;9.45;3.33;;;;;;;19.92;73.63;98606.25;5301856;27;20780;-86
2022/10/26 08:10:59;;;;;;;9.25;3.67;;;;;;;20.08;72.89;98602.50;5281185;27;20053;-87
2022/10/26 08:13:26;;;;;;;9.27;3.50;;;;;;;20.48;70.85;98598.66;5299258;27;20089;-86
2022/10/26 08:16:00;;;;;;;10.43;3.80;;;;;;;21.17;69.37;98603.09;5302726;27;20084;-86
2022/10/26 08:18:27;;;;;;;8.13;3.37;;;;;;;21.54;67.70;98590.59;5301348;27;20396;-86
2022/10/26 08:20:54;;;;;;;8.60;2.92;;;;;;;22.19;64.81;98600.25;5301542;27;20057;-86
2022/10/26 08:23:35;;;;;;;8.30;3.03;;;;;;;21.80;64.98;98597.25;5304819;27;20025;-86
2022/10/26 08:26:03;;;;;;;8.35;3.20;;;;;;;22.08;63.91;98601.13;5304139;27;20546;-85
2022/10/26 08:28:30;;;;;;;8.10;3.17;;;;;;;22.46;63.31;98605.06;5305197;27;20061;-86
2022/10/26 08:30:57;;;;;;;6.32;2.55;;;;;;;22.51;62.64;98603.69;5303579;27;20050;-86
2022/10/26 08:33:24;;;;;;;8.07;2.92;;;;;;;21.97;64.37;98608.19;5307107;27;20025;-86
2022/10/26 08:36:10;;;;;;;6.60;2.62;;;;;;;22.49;61.54;98610.88;5306965;27;20071;-85
2022/10/26 08:38:37;;;;;;;6.37;2.50;;;;;;;22.09;62.73;98604.59;5284139;27;20075;-86
2022/10/26 08:41:08;;;;;;;8.00;2.50;;;;;;;22.14;62.79;98603.28;5306114;27;20063;-83
2022/10/26 08:43:53;;;;;;;7.18;2.60;;;;;;;21.43;64.18;98595.84;5302932;27;20056;-88
2022/10/26 08:46:27;;;;;;;10.05;2.53;;;;;;;20.94;66.83;98607.47;5281383;27;20061;-83
2022/10/26 08:48:58;;;;;;;6.90;2.25;;;;;;;21.39;65.47;98616.25;5299595;27;20118;-82
2022/10/26 08:51:34;;;;;;;4.97;2.12;;;;;;;21.37;63.94;98620.78;5300054;27;20400;-83
2022/10/26 08:54:08;;;;;;;6.43;2.50;;;;;;;20.79;65.38;98605.06;5283826;27;20032;-85
2022/10/26 08:56:48;;;;;;;5.68;2.37;;;;;;;20.56;67.55;98607.75;5309840;27;20036;-86
2022/10/26 08:59:32;;;;;;;6.35;2.20;;;;;;;21.16;64.47;98617.16;5310682;27;20068;-86
2022/10/26 09:02:01;;;;;;;5.30;2.33;;;;;;;21.15;64.62;98618.09;5311600;27;20028;-86
2022/10/26 09:04:30;;;;;;;7.78;2.40;;;;;;;21.82;63.19;98629.47;5309588;27;20121;-85
2022/10/26 09:07:17;;;;;;;6.12;2.17;;;;;;;21.70;62.87;98633.06;5308086;27;20030;-86
2022/10/26 09:10:12;;;;;;;7.57;2.10;;;;;;;21.90;62.18;98637.59;5299467;27;20057;-86
2022/10/26 09:13:22;;;;;;;5.12;2.12;;;;;;;21.96;62.67;98636.25;5306378;27;20060;-86
2022/10/26 09:16:01;;;;;;;4.25;1.95;;;;;;;21.95;62.81;98637.22;5287505;27;20048;-86
2022/10/26 09:18:37;;;;;;;7.40;2.30;;;;;;;22.47;61.42;98643.53;5305731;27;20064;-86
2022/10/26 09:21:23;;;;;;;8.52;2.90;;;;;;;22.44;61.05;98633.28;5307109;27;20060;-86
2022/10/26 09:23:53;;;;;;;7.93;2.40;;;;;;;22.35;62.15;98632.22;5288717;27;20049;-86
2022/10/26 09:26:48;;;;;;;5.68;2.30;;;;;;;23.05;59.42;98644.81;5309308;27;20054;-85
2022/10/26 09:29:14;;;;;;;8.40;2.53;;;;;;;23.04;58.25;98650.19;5303602;27;20075;-87
2022/10/26 09:31:44;;;;;;;7.37;2.65;;;;;;;22.88;59.52;98652.47;5304301;27;20057;-84
2022/10/26 09:34:27;;;;;;;5.18;2.30;;;;;;;22.35;60.36;98648.00;5307411;27;20049;-84
2022/10/26 09:36:56;;;;;;;5.87;2.47;;;;;;;21.84;62.62;98655.62;5294428;27;20045;-85
2022/10/26 09:39:35;;;;;;;6.53;2.60;;;;;;;21.29;64.55;98652.06;5312898;27;20037;-84
2022/10/26 09:42:11;;;;;;;6.00;2.30;;;;;;;21.80;62.63;98654.16;5307771;27;20110;-83
2022/10/26 09:44:54;;;;;;;8.32;2.35;;;;;;;22.35;60.48;98660.31;5312855;27;20054;-83
2022/10/26 09:47:32;;;;;;;6.20;2.25;;;;;;;22.36;60.22;98657.56;5312492;27;20049;-83
2022/10/26 09:50:35;;;;;;;7.82;2.92;;;;;;;22.24;60.06;98666.44;5310141;27;20061;-83
2022/10/26 09:53:02;;;;;;;6.10;2.30;;;;;;;21.43;63.39;98659.69;5294209;27;20746;-83
2022/10/26 09:55:50;;;;;;;5.47;2.30;;;;;;;21.75;63.36;98661.59;5309902;27;20026;-83
2022/10/26 09:58:21;;;;;;;9.55;2.22;;;;;;;21.75;62.65;98658.97;5293828;27;20032;-83
2022/10/26 10:00:48;;;;;;;8.45;2.53;;;;;;;22.34;61.28;98658.66;5296742;27;20037;-83
2022/10/26 10:03:28;;;;;;;10.15;2.22;;;;;;;22.02;60.07;98661.22;5310684;27;20025;-84
2022/10/26 10:06:14;;;;;;;7.57;2.47;;;;;;;21.66;62.52;98663.16;5310427;27;20057;-83
2022/10/26 10:08:42;;;;;;;5.82;2.50;;;;;;;22.40;60.89;98656.34;5303673;27;20041;-83
2022/10/26 10:11:13;;;;;;;6.45;2.28;;;;;;;22.79;58.86;98661.91;5305249;27;20025;-83
2022/10/26 10:13:44;;;;;;;6.70;2.70;;;;;;;22.63;58.86;98662.34;5317212;27;20031;-83
2022/10/26 10:16:26;;;;;;;6.80;2.62;;;;;;;22.22;59.73;98663.06;5298700;27;20036;-83
2022/10/26 10:18:55;;;;;;;6.10;2.50;;;;;;;21.87;61.70;98652.75;5317307;27;20029;-84
2022/10/26 10:21:48;;;;;;;6.57;2.60;;;;;;;22.08;60.57;98651.06;5298698;27;20025;-83
2022/10/26 10:24:36;;;;;;;5.45;2.40;;;;;;;22.36;61.38;98651.47;5298632;27;20036;-83
2022/10/26 10:27:16;;;;;;;7.82;2.15;;;;;;;22.01;59.35;98668.25;5298651;27;20022;-83
2022/10/26 10:29:50;;;;;;;7.18;2.35;;;;;;;21.03;62.90;98665.31;5316946;27;20026;-84
2022/10/26 10:32:20;;;;;;;8.18;2.20;;;;;;;21.01;62.48;98666.41;5298762;27;20040;-84
2022/10/26 10:34:52;;;;;;;5.95;2.58;;;;;;;21.34;61.16;98673.53;5317005;27;20039;-83
2022/10/26 10:37:23;;;;;;;6.55;2.53;;;;;;;20.89;62.53;98665.53;5317360;27;20033;-83
2022/10/26 10:39:51;;;;;;;5.85;2.42;;;;;;;20.64;63.54;98665.72;5317368;27;20021;-83
2022/10/26 10:42:21;;;;;;;7.03;2.47;;;;;;;20.76;63.28;98659.53;5286566;27;20072;-81
2022/10/26 10:44:53;;;;;;;5.62;2.30;;;;;;;20.91;63.54;98650.50;5280400;27;20065;-81
2022/10/26 10:47:34;;;;;;;5.45;2.10;;;;;;;21.06;63.60;98659.03;5301934;27;20060;-84
2022/10/26 10:50:05;;;;;;;4.43;2.17;;;;;;;21.98;59.74;98659.75;5293611;27;20052;-83
2022/10/26 10:52:34;;;;;;;5.20;2.40;;;;;;;22.10;57.69;98658.81;5310794;27;20029;-84
2022/10/26 10:55:15;;;;;;;7.05;1.90;;;;;;;22.15;58.40;98648.78;5294003;27;20032;-84
2022/10/26 10:58:01;;;;;;;10.65;2.25;;;;;;;22.11;58.95;98647.34;5311434;27;20059;-84
2022/10/26 11:00:32;;;;;;;5.75;2.30;;;;;;;22.61;58.02;98648.50;5312524;27;20021;-84
2022/10/26 11:03:26;;;;;;;4.50;1.95;;;;;;;23.05;56.67;98641.34;5290710;27;20076;-84
2022/10/26 11:06:09;;;;;;;5.35;2.10;;;;;;;23.26;55.03;98652.69;5313561;27;20044;-84
2022/10/26 11:09:09;;;;;;;6.37;2.03;;;;;;;23.65;54.65;98652.91;5289182;27;20022;-84
2022/10/26 11:11:47;;;;;;;5.32;2.17;;;;;;;22.94;55.01;98644.03;5288698;27;20044;-84
2022/10/26 11:14:27;;;;;;;7.10;2.53;;;;;;;22.97;54.40;98636.75;5309395;27;20061;-83
2022/10/26 11:17:17;;;;;;;4.32;1.92;;;;;;;22.73;56.21;98634.31;5308229;27;20058;-85
2022/10/26 11:19:46;;;;;;;5.85;2.05;;;;;;;22.89;54.48;98638.34;5288398;27;20391;-85
2022/10/26 11:22:16;;;;;;;4.50;1.80;;;;;;;22.16;57.43;98643.41;5307451;27;20021;-85
2022/10/26 11:25:14;;;;;;;4.00;1.92;;;;;;;22.20;56.78;98644.81;5314237;27;20048;-84
2022/10/26 11:27:42;;;;;;;;;;;;;;;21.61;57.10;98650.38;5312340;27;20032;-84
2022/10/26 11:30:15;;;;;;;6.28;2.22;;;;;;;21.45;57.68;98649.91;5315488;27;19940;-84
2022/10/26 11:32:43;;;;;;;5.12;2.08;;;;;;;21.54;57.98;98656.22;5309935;27;20022;-85
2022/10/26 11:35:16;;;;;;;5.07;2.08;;;;;;;21.38;59.06;98661.84;5314755;27;20025;-85
2022/10/26 11:37:49;;;;;;;6.45;2.28;;;;;;;21.99;57.04;98664.91;5313396;27;20072;-85
2022/10/26 11:40:52;;;;;;;7.00;2.45;;;;;;;21.46;59.77;98662.06;5310974;27;20028;-85
2022/10/26 11:43:39;;;;;;;6.00;2.40;;;;;;;21.30;59.89;98672.09;5309800;27;20032;-84
2022/10/26 11:46:12;;;;;;;5.67;2.33;;;;;;;21.10;60.24;98668.34;5286794;27;20025;-84
2022/10/26 11:48:59;;;;;;;4.47;2.12;;;;;;;20.90;61.39;98656.72;5286567;27;20157;-84
2022/10/26 11:51:29;;;;;;;5.93;2.33;;;;;;;20.64;62.81;98653.44;5304855;27;20049;-84